createdAt,value
2019-05-11T00:00:20.883Z,64.70
2019-05-11T00:02:51.174Z,64.60
2019-05-11T00:05:24.299Z,64.40
2019-05-11T00:07:54.535Z,64.20
2019-05-11T00:10:24.770Z,64.30
2019-05-11T00:12:55.103Z,64.10
2019-05-11T00:15:25.719Z,64.20
2019-05-11T00:17:55.983Z,64.20
2019-05-11T00:20:26.231Z,64.30
2019-05-11T00:22:56.427Z,64.80
2019-05-11T00:25:26.640Z,64.40
2019-05-11T00:27:56.843Z,64.40
2019-05-11T00:30:28.663Z,64.30
2019-05-11T00:32:58.778Z,64.20
2019-05-11T00:35:28.968Z,64.20
2019-05-11T00:37:59.183Z,64.60
2019-05-11T00:40:29.367Z,65.10
2019-05-11T00:42:59.574Z,65.50
2019-05-11T00:45:29.811Z,65.50
2019-05-11T00:48:00.026Z,65.00
2019-05-11T00:50:38.692Z,65.40
2019-05-11T00:53:02.220Z,65.60
2019-05-11T00:55:32.441Z,65.90
2019-05-11T00:58:02.696Z,66.00
2019-05-11T01:00:32.934Z,66.10
2019-05-11T01:03:04.922Z,66.10
2019-05-11T01:05:35.710Z,66.10
2019-05-11T01:08:06.255Z,66.40
2019-05-11T01:10:42.150Z,66.30
2019-05-11T01:13:28.551Z,66.00
2019-05-11T01:15:58.759Z,66.20
2019-05-11T01:18:29.153Z,66.10
2019-05-11T01:20:59.416Z,66.40
2019-05-11T01:23:45.248Z,66.40
2019-05-11T01:26:15.462Z,66.60
2019-05-11T01:28:45.734Z,66.40
2019-05-11T01:31:15.931Z,66.90
2019-05-11T01:33:46.214Z,66.60
2019-05-11T01:36:16.479Z,66.80
2019-05-11T01:38:46.693Z,66.60
2019-05-11T01:41:16.884Z,66.40
2019-05-11T01:43:47.103Z,66.70
2019-05-11T01:46:17.297Z,66.50
2019-05-11T01:48:47.511Z,67.00
2019-05-11T01:51:17.705Z,67.40
2019-05-11T01:53:48.359Z,68.00
2019-05-11T01:56:19.425Z,68.00
2019-05-11T01:58:49.638Z,67.60
2019-05-11T02:01:19.832Z,67.40
2019-05-11T02:03:50.042Z,67.00
2019-05-11T02:06:20.231Z,67.20
2019-05-11T02:08:50.495Z,66.90
2019-05-11T02:11:20.755Z,66.90
2019-05-11T02:13:50.987Z,66.70
2019-05-11T02:16:21.162Z,67.20
2019-05-11T02:19:04.010Z,67.30
2019-05-11T02:21:34.224Z,67.20
2019-05-11T02:24:04.452Z,67.30
2019-05-11T02:26:35.068Z,67.50
2019-05-11T02:29:05.137Z,67.70
2019-05-11T02:31:35.434Z,67.50
2019-05-11T02:34:05.642Z,67.80
2019-05-11T02:36:35.857Z,67.60
2019-05-11T02:39:44.447Z,67.40
2019-05-11T02:42:14.673Z,67.40
2019-05-11T02:44:44.867Z,67.50
2019-05-11T02:47:15.070Z,68.40
2019-05-11T02:49:45.265Z,68.30
2019-05-11T02:52:15.573Z,68.20
2019-05-11T02:54:46.120Z,67.90
2019-05-11T02:57:16.306Z,67.60
2019-05-11T02:59:46.520Z,67.50
2019-05-11T03:02:16.708Z,67.40
2019-05-11T03:04:47.365Z,67.20
2019-05-11T03:07:17.564Z,67.10
2019-05-11T03:09:48.090Z,67.20
2019-05-11T03:12:18.356Z,67.10
2019-05-11T03:14:48.551Z,67.60
2019-05-11T03:17:20.384Z,67.30
2019-05-11T03:19:50.676Z,67.40
2019-05-11T03:22:20.858Z,67.20
2019-05-11T03:24:51.156Z,67.50
2019-05-11T03:27:21.617Z,67.80
2019-05-11T03:29:51.736Z,67.80
2019-05-11T03:32:22.312Z,68.10
2019-05-11T03:34:52.375Z,68.10
2019-05-11T03:37:22.564Z,67.60
2019-05-11T03:39:52.795Z,67.70
2019-05-11T03:42:22.999Z,68.00
2019-05-11T03:44:53.266Z,68.00
2019-05-11T03:47:23.452Z,67.80
2019-05-11T03:49:53.660Z,67.90
2019-05-11T03:52:23.849Z,67.80
2019-05-11T03:58:40.333Z,68.10
2019-05-11T04:01:10.584Z,68.80
2019-05-11T04:03:40.865Z,68.80
2019-05-11T04:06:11.079Z,68.60
2019-05-11T04:08:53.093Z,68.70
2019-05-11T04:11:23.283Z,68.90
2019-05-11T04:13:53.668Z,69.00
2019-05-11T04:16:23.852Z,68.10
2019-05-11T04:18:54.051Z,68.20
2019-05-11T04:21:24.259Z,67.90
2019-05-11T04:23:55.386Z,67.20
2019-05-11T04:26:25.654Z,66.80
2019-05-11T04:28:55.908Z,66.50
2019-05-11T04:31:26.110Z,65.90
2019-05-11T04:33:56.431Z,66.10
2019-05-11T04:36:29.358Z,66.60
2019-05-11T04:39:06.711Z,66.80
2019-05-11T04:41:36.919Z,67.10
2019-05-11T04:44:07.102Z,65.20
2019-05-11T04:46:37.296Z,64.60
2019-05-11T04:49:07.479Z,64.40
2019-05-11T04:51:37.690Z,64.40
2019-05-11T04:54:10.909Z,63.80
2019-05-11T04:56:41.111Z,63.70
2019-05-11T04:59:11.294Z,62.90
2019-05-11T05:01:41.509Z,62.70
2019-05-11T05:04:14.233Z,62.20
2019-05-11T05:06:57.830Z,60.40
2019-05-11T05:09:16.067Z,59.10
2019-05-11T05:11:46.327Z,58.20
2019-05-11T05:14:16.527Z,56.00
2019-05-11T05:16:46.732Z,53.90
2019-05-11T05:19:16.932Z,51.50
2019-05-11T05:21:47.199Z,49.90
2019-05-11T05:24:48.032Z,48.90
2019-05-11T05:27:18.250Z,47.90
2019-05-11T05:29:48.427Z,48.10
2019-05-11T05:32:18.639Z,48.40
2019-05-11T05:34:48.881Z,48.40
2019-05-11T05:37:19.089Z,47.70
2019-05-11T05:39:49.351Z,48.00
2019-05-11T05:42:19.622Z,47.70
2019-05-11T05:44:49.875Z,47.10
2019-05-11T05:47:20.143Z,47.30
2019-05-11T05:49:50.355Z,47.60
2019-05-11T05:52:20.645Z,48.20
2019-05-11T05:54:50.972Z,49.20
2019-05-11T05:57:21.191Z,49.30
2019-05-11T05:59:51.376Z,50.90
2019-05-11T06:02:21.586Z,49.90
2019-05-11T06:04:52.746Z,49.10
2019-05-11T06:07:23.287Z,49.80
2019-05-11T06:10:12.974Z,49.50
2019-05-11T06:12:43.255Z,49.10
2019-05-11T06:15:13.428Z,49.00
2019-05-11T06:17:43.719Z,49.50
2019-05-11T06:20:19.965Z,47.30
2019-05-11T06:22:53.391Z,46.50
2019-05-11T06:25:23.586Z,44.90
2019-05-11T06:27:53.786Z,42.80
2019-05-11T06:30:24.186Z,40.40
2019-05-11T06:32:54.470Z,39.80
2019-05-11T06:35:24.655Z,39.90
2019-05-11T06:37:54.883Z,39.20
2019-05-11T06:40:28.369Z,40.90
2019-05-11T06:42:57.063Z,40.00
2019-05-11T06:45:27.240Z,41.00
2019-05-11T06:47:57.658Z,42.60
2019-05-11T06:50:27.902Z,42.60
2019-05-11T06:52:58.123Z,42.00
2019-05-11T06:55:28.333Z,43.90
2019-05-11T06:57:58.586Z,43.20
2019-05-11T07:00:28.792Z,43.70
2019-05-11T07:02:59.073Z,42.00
2019-05-11T07:05:29.445Z,39.20
2019-05-11T07:07:59.623Z,39.80
2019-05-11T07:10:29.905Z,41.00
2019-05-11T07:13:00.112Z,40.20
2019-05-11T07:15:30.382Z,38.70
2019-05-11T07:18:00.579Z,39.00
2019-05-11T07:20:30.791Z,40.00
2019-05-11T07:23:00.986Z,40.10
2019-05-11T07:25:31.186Z,39.20
2019-05-11T07:28:01.362Z,38.60
2019-05-11T07:30:32.635Z,37.80
2019-05-11T07:33:03.185Z,36.80
2019-05-11T07:35:34.139Z,36.20
2019-05-11T07:38:04.453Z,36.80
2019-05-11T07:40:34.653Z,36.50
2019-05-11T07:43:09.010Z,35.00
2019-05-11T07:45:38.655Z,35.10
2019-05-11T07:48:09.143Z,36.00
2019-05-11T07:50:39.779Z,36.20
2019-05-11T07:53:09.962Z,36.30
2019-05-11T07:55:40.161Z,35.50
2019-05-11T07:58:10.339Z,36.20
2019-05-11T08:00:40.859Z,37.30
2019-05-11T08:03:11.039Z,38.40
2019-05-11T08:05:41.226Z,38.70
2019-05-11T08:08:11.415Z,37.10
2019-05-11T08:10:41.646Z,36.20
2019-05-11T08:13:11.910Z,37.30
2019-05-11T08:15:42.107Z,36.20
2019-05-11T08:18:12.283Z,38.50
2019-05-11T08:20:42.494Z,37.80
2019-05-11T08:23:12.672Z,37.80
2019-05-11T08:25:42.875Z,37.90
2019-05-11T08:28:13.063Z,38.90
2019-05-11T08:30:43.262Z,37.80
2019-05-11T08:33:13.443Z,39.60
2019-05-11T08:35:43.644Z,37.70
2019-05-11T08:38:13.818Z,38.30
2019-05-11T08:40:44.023Z,39.90
2019-05-11T08:43:14.202Z,40.60
2019-05-11T08:45:44.411Z,41.60
2019-05-11T08:48:14.595Z,40.40
2019-05-11T08:50:44.804Z,42.40
2019-05-11T08:53:14.986Z,41.60
2019-05-11T08:55:45.201Z,42.90
2019-05-11T08:58:15.456Z,41.80
2019-05-11T09:00:47.712Z,41.20
2019-05-11T09:03:17.997Z,41.50
2019-05-11T09:05:48.668Z,41.80
2019-05-11T09:08:19.162Z,40.30
2019-05-11T09:10:49.502Z,40.20
2019-05-11T09:13:21.226Z,39.30
2019-05-11T09:15:51.444Z,41.70
2019-05-11T09:18:21.658Z,40.40
2019-05-11T09:20:51.865Z,41.20
2019-05-11T09:23:33.685Z,38.60
2019-05-11T09:25:54.122Z,37.90
2019-05-11T09:28:24.387Z,36.70
2019-05-11T09:30:54.702Z,37.10
2019-05-11T09:33:24.978Z,37.90
2019-05-11T09:35:55.275Z,37.90
2019-05-11T09:38:27.605Z,38.80
2019-05-11T09:40:58.576Z,39.70
2019-05-11T09:43:48.191Z,38.70
2019-05-11T09:46:18.891Z,37.30
2019-05-11T09:48:48.709Z,37.40
2019-05-11T09:51:19.096Z,39.20
2019-05-11T09:53:49.284Z,40.30
2019-05-11T09:56:19.647Z,39.60
2019-05-11T09:58:49.903Z,40.50
2019-05-11T10:01:20.211Z,41.70
2019-05-11T10:03:50.412Z,40.70
2019-05-11T10:06:20.621Z,38.70
2019-05-11T10:08:50.804Z,38.70
2019-05-11T10:11:21.058Z,34.50
2019-05-11T10:13:51.248Z,34.80
2019-05-11T10:16:21.539Z,34.30
2019-05-11T10:18:51.776Z,34.70
2019-05-11T10:21:21.968Z,34.80
2019-05-11T10:23:52.246Z,33.50
2019-05-11T10:26:22.451Z,31.40
2019-05-11T10:28:52.673Z,31.90
2019-05-11T10:31:23.007Z,32.60
2019-05-11T10:33:53.209Z,33.40
2019-05-11T10:36:23.408Z,33.50
2019-05-11T10:38:53.634Z,33.30
2019-05-11T10:41:23.823Z,35.80
2019-05-11T10:43:54.272Z,35.20
2019-05-11T10:46:24.472Z,35.70
2019-05-11T10:48:54.769Z,34.30
2019-05-11T10:51:24.957Z,31.80
2019-05-11T10:53:57.593Z,34.10
2019-05-11T10:56:28.471Z,32.20
2019-05-11T10:58:58.873Z,33.20
2019-05-11T11:01:29.052Z,31.10
2019-05-11T11:03:59.317Z,31.10
2019-05-11T11:06:29.538Z,30.20
2019-05-11T11:08:59.761Z,29.70
2019-05-11T11:11:29.940Z,30.00
2019-05-11T11:14:00.234Z,30.80
2019-05-11T11:16:36.926Z,29.60
2019-05-11T11:19:02.524Z,30.00
2019-05-11T11:21:32.725Z,29.90
2019-05-11T11:24:02.958Z,30.60
2019-05-11T11:26:33.189Z,30.30
2019-05-11T11:29:03.417Z,30.60
2019-05-11T11:31:33.814Z,30.80
2019-05-11T11:34:04.191Z,32.50
2019-05-11T11:36:34.398Z,31.30
2019-05-11T11:39:08.365Z,30.80
2019-05-11T11:41:38.452Z,33.30
2019-05-11T11:44:08.702Z,34.70
2019-05-11T11:46:51.346Z,35.50
2019-05-11T11:49:11.124Z,37.40
2019-05-11T11:51:41.314Z,37.90
2019-05-11T11:54:11.503Z,38.20
2019-05-11T11:56:41.751Z,34.90
2019-05-11T11:59:12.302Z,34.70
2019-05-11T12:01:42.508Z,33.80
2019-05-11T12:04:12.685Z,31.60
2019-05-11T12:06:42.888Z,31.30
2019-05-11T12:09:13.068Z,34.20
2019-05-11T12:11:43.279Z,32.50
2019-05-11T12:14:13.492Z,33.90
2019-05-11T12:16:43.715Z,35.10
2019-05-11T12:19:13.927Z,35.60
2019-05-11T12:21:44.138Z,34.90
2019-05-11T12:24:14.388Z,36.60
2019-05-11T12:26:44.596Z,34.70
2019-05-11T12:29:15.187Z,38.00
2019-05-11T12:31:45.602Z,35.50
2019-05-11T12:34:17.739Z,34.20
2019-05-11T12:36:48.134Z,33.20
2019-05-11T12:39:19.145Z,33.20
2019-05-11T12:41:49.934Z,33.60
2019-05-11T12:44:20.150Z,34.00
2019-05-11T12:46:50.511Z,33.20
2019-05-11T12:49:20.682Z,33.50
2019-05-11T12:51:50.891Z,32.10
2019-05-11T12:54:21.150Z,32.40
2019-05-11T12:56:51.350Z,30.30
2019-05-11T12:59:22.500Z,29.20
2019-05-11T13:01:52.691Z,32.30
2019-05-11T13:04:22.938Z,31.60
2019-05-11T13:06:53.162Z,33.00
2019-05-11T13:09:23.330Z,32.20
2019-05-11T13:11:53.545Z,31.60
2019-05-11T13:18:13.964Z,32.70
2019-05-11T13:20:44.227Z,31.80
2019-05-11T13:23:14.437Z,34.00
2019-05-11T13:25:44.602Z,35.70
2019-05-11T13:28:14.810Z,36.70
2019-05-11T13:30:44.994Z,36.70
2019-05-11T13:33:15.198Z,36.90
2019-05-11T13:35:45.448Z,35.40
2019-05-11T13:38:17.871Z,36.70
2019-05-11T13:40:48.892Z,36.30
2019-05-11T13:43:19.788Z,33.60
2019-05-11T13:45:49.995Z,33.60
2019-05-11T13:48:20.199Z,35.10
2019-05-11T13:50:50.398Z,35.10
2019-05-11T13:53:20.619Z,36.90
2019-05-11T13:55:50.972Z,36.30
2019-05-11T13:58:21.175Z,34.20
2019-05-11T14:00:51.807Z,32.90
2019-05-11T14:03:22.102Z,32.70
2019-05-11T14:05:52.314Z,33.70
2019-05-11T14:08:22.607Z,34.20
2019-05-11T14:10:52.787Z,34.50
2019-05-11T14:13:23.000Z,33.20
2019-05-11T14:16:11.388Z,33.80
2019-05-11T14:18:41.608Z,35.10
2019-05-11T14:21:11.786Z,33.80
2019-05-11T14:23:42.065Z,33.60
2019-05-11T14:26:12.494Z,34.00
2019-05-11T14:28:42.880Z,32.90
2019-05-11T14:31:13.421Z,33.30
2019-05-11T14:33:43.699Z,34.60
2019-05-11T14:36:13.866Z,33.90
2019-05-11T14:38:44.097Z,35.70
2019-05-11T14:41:14.283Z,35.00
2019-05-11T14:43:44.489Z,35.60
2019-05-11T14:46:14.992Z,34.40
2019-05-11T14:48:45.267Z,35.50
2019-05-11T14:51:17.726Z,35.30
2019-05-11T14:53:48.209Z,34.90
2019-05-11T14:56:19.053Z,34.10
2019-05-11T14:58:49.442Z,35.10
2019-05-11T15:01:19.996Z,33.90
2019-05-11T15:03:50.224Z,34.00
2019-05-11T15:06:20.412Z,33.50
2019-05-11T15:08:50.616Z,32.60
2019-05-11T15:11:20.869Z,31.30
2019-05-11T15:13:51.338Z,32.50
2019-05-11T15:16:22.591Z,32.30
2019-05-11T15:18:52.791Z,32.40
2019-05-11T15:21:22.991Z,32.30
2019-05-11T15:23:53.198Z,32.60
2019-05-11T15:26:23.402Z,32.70
2019-05-11T15:28:54.047Z,33.60
2019-05-11T15:31:24.169Z,33.40
2019-05-11T15:33:54.350Z,36.00
2019-05-11T15:36:24.551Z,37.20
2019-05-11T15:38:54.795Z,37.10
2019-05-11T15:41:25.008Z,36.20
2019-05-11T15:43:55.184Z,36.20
2019-05-11T15:46:25.388Z,35.40
2019-05-11T15:49:00.471Z,36.00
2019-05-11T15:51:29.090Z,35.50
2019-05-11T15:53:59.511Z,37.50
2019-05-11T15:56:30.794Z,36.90
2019-05-11T15:59:01.042Z,38.10
2019-05-11T16:01:31.293Z,38.40
2019-05-11T16:04:01.492Z,38.10
2019-05-11T16:06:32.163Z,36.90
2019-05-11T16:09:02.293Z,36.70
2019-05-11T16:11:32.640Z,37.20
2019-05-11T16:14:02.887Z,37.10
2019-05-11T16:16:33.467Z,36.70
2019-05-11T16:19:13.607Z,36.90
2019-05-11T16:21:38.085Z,37.00
2019-05-11T16:24:08.201Z,37.30
2019-05-11T16:26:38.758Z,37.00
2019-05-11T16:29:11.465Z,37.30
2019-05-11T16:31:40.834Z,37.10
2019-05-11T16:34:11.058Z,37.30
2019-05-11T16:36:41.268Z,36.70
2019-05-11T16:39:11.464Z,36.90
2019-05-11T16:41:41.698Z,36.40
2019-05-11T16:44:11.938Z,36.80
2019-05-11T16:46:42.148Z,37.30
2019-05-11T16:49:24.915Z,37.60
2019-05-11T16:51:44.227Z,38.30
2019-05-11T16:54:14.572Z,38.10
2019-05-11T16:56:44.792Z,38.20
2019-05-11T16:59:15.040Z,38.80
2019-05-11T17:01:45.246Z,39.00
2019-05-11T17:04:15.436Z,39.90
2019-05-11T17:06:45.644Z,40.20
2019-05-11T17:09:17.861Z,41.40
2019-05-11T17:11:48.958Z,41.70
2019-05-11T17:14:19.526Z,41.50
2019-05-11T17:16:49.852Z,42.80
2019-05-11T17:19:20.110Z,42.90
2019-05-11T17:21:50.304Z,44.10
2019-05-11T17:24:20.509Z,43.90
2019-05-11T17:26:50.713Z,44.40
2019-05-11T17:29:20.929Z,44.70
2019-05-11T17:31:51.181Z,45.10
2019-05-11T17:34:21.557Z,45.40
2019-05-11T17:36:51.790Z,46.00
2019-05-11T17:39:22.068Z,45.30
2019-05-11T17:41:52.244Z,46.20
2019-05-11T17:44:22.464Z,46.20
2019-05-11T17:46:52.643Z,47.00
2019-05-11T17:49:22.932Z,46.20
2019-05-11T17:51:53.113Z,46.10
2019-05-11T17:54:23.424Z,45.70
2019-05-11T17:56:53.629Z,45.60
2019-05-11T17:59:23.903Z,44.80
2019-05-11T18:01:54.139Z,45.00
2019-05-11T18:04:24.561Z,45.80
2019-05-11T18:06:58.835Z,45.90
2019-05-11T18:09:29.320Z,46.40
2019-05-11T18:11:59.499Z,47.00
2019-05-11T18:14:29.710Z,46.60
2019-05-11T18:16:59.976Z,46.40
2019-05-11T18:19:30.492Z,46.70
2019-05-11T18:22:00.749Z,47.00
2019-05-11T18:24:30.957Z,47.90
2019-05-11T18:27:01.169Z,48.50
2019-05-11T18:29:32.443Z,49.40
2019-05-11T18:32:02.624Z,48.70
2019-05-11T18:34:33.008Z,48.60
2019-05-11T18:37:03.204Z,48.40
2019-05-11T18:39:33.472Z,48.90
2019-05-11T18:42:03.665Z,49.70
2019-05-11T18:44:33.852Z,50.20
2019-05-11T18:47:04.046Z,49.60
2019-05-11T18:50:07.335Z,50.00
2019-05-11T18:52:37.578Z,50.00
2019-05-11T18:55:08.445Z,50.00
2019-05-11T18:57:39.223Z,50.30
2019-05-11T19:00:14.431Z,50.50
2019-05-11T19:02:45.523Z,50.60
2019-05-11T19:05:17.805Z,50.80
2019-05-11T19:07:48.281Z,51.20
2019-05-11T19:10:18.856Z,51.60
2019-05-11T19:12:49.221Z,51.40
2019-05-11T19:15:19.642Z,51.60
2019-05-11T19:17:49.826Z,51.30
2019-05-11T19:20:20.034Z,51.40
2019-05-11T19:22:50.213Z,52.10
2019-05-11T19:25:20.413Z,52.00
2019-05-11T19:27:50.879Z,52.30
2019-05-11T19:30:21.296Z,52.30
2019-05-11T19:32:51.574Z,52.10
2019-05-11T19:35:21.855Z,52.50
2019-05-11T19:37:52.178Z,52.00
2019-05-11T19:40:22.513Z,52.70
2019-05-11T19:42:54.597Z,52.70
2019-05-11T19:45:28.943Z,53.10
2019-05-11T19:47:58.009Z,53.00
2019-05-11T19:50:28.243Z,52.70
2019-05-11T19:52:58.606Z,52.70
2019-05-11T19:55:28.838Z,52.60
2019-05-11T19:58:00.223Z,52.30
2019-05-11T20:00:30.499Z,52.80
2019-05-11T20:03:00.694Z,52.70
2019-05-11T20:05:31.234Z,52.80
2019-05-11T20:08:01.484Z,53.00
2019-05-11T20:10:31.678Z,52.70
2019-05-11T20:13:01.874Z,52.90
2019-05-11T20:15:32.139Z,52.70
2019-05-11T20:18:02.453Z,53.40
2019-05-11T20:20:32.641Z,53.20
2019-05-11T20:23:02.892Z,53.10
2019-05-11T20:25:33.086Z,53.10
2019-05-11T20:28:03.360Z,52.90
2019-05-11T20:30:33.647Z,53.20
2019-05-11T20:33:03.846Z,53.40
2019-05-11T20:35:34.041Z,53.50
2019-05-11T20:38:04.384Z,53.30
2019-05-11T20:40:34.693Z,53.80
2019-05-11T20:43:04.902Z,53.70
2019-05-11T20:45:35.240Z,54.10
2019-05-11T20:48:07.745Z,53.80
2019-05-11T20:50:38.286Z,53.90
2019-05-11T20:53:08.702Z,55.00
2019-05-11T20:55:39.699Z,54.80
2019-05-11T20:58:09.992Z,55.00
2019-05-11T21:00:40.168Z,54.60
2019-05-11T21:03:10.373Z,54.60
2019-05-11T21:05:40.657Z,54.40
2019-05-11T21:08:10.856Z,54.30
2019-05-11T21:10:41.081Z,54.60
2019-05-11T21:13:11.271Z,54.60
2019-05-11T21:15:41.562Z,54.60
2019-05-11T21:18:11.743Z,54.50
2019-05-11T21:20:41.981Z,54.80
2019-05-11T21:23:12.223Z,54.90
2019-05-11T21:25:42.497Z,55.30
2019-05-11T21:28:12.666Z,55.00
2019-05-11T21:30:42.875Z,55.20
2019-05-11T21:33:13.057Z,54.80
2019-05-11T21:35:44.194Z,54.80
2019-05-11T21:38:14.537Z,54.80
2019-05-11T21:40:45.181Z,54.60
2019-05-11T21:43:15.599Z,54.70
2019-05-11T21:45:45.805Z,54.60
2019-05-11T21:48:16.040Z,54.50
2019-05-11T21:50:46.323Z,54.60
2019-05-11T21:53:18.438Z,54.50
2019-05-11T21:55:48.541Z,54.50
2019-05-11T21:58:18.756Z,55.30
2019-05-11T22:00:49.263Z,55.10
2019-05-11T22:03:21.257Z,55.20
2019-05-11T22:05:51.610Z,55.00
2019-05-11T22:08:21.816Z,55.00
2019-05-11T22:10:52.022Z,55.30
2019-05-11T22:13:22.247Z,55.40
2019-05-11T22:15:52.494Z,55.50
2019-05-11T22:18:30.990Z,55.20
2019-05-11T22:20:54.697Z,55.40
2019-05-11T22:23:24.912Z,55.40
2019-05-11T22:25:55.350Z,55.70
2019-05-11T22:28:25.639Z,55.80
2019-05-11T22:30:55.963Z,55.70
2019-05-11T22:33:28.261Z,56.00
2019-05-11T22:35:58.722Z,56.20
2019-05-11T22:38:30.301Z,55.90
2019-05-11T22:41:00.488Z,56.30
2019-05-11T22:43:30.780Z,56.10
2019-05-11T22:46:01.018Z,55.90
2019-05-11T22:48:31.270Z,55.70
2019-05-11T22:51:01.546Z,56.60
2019-05-11T22:53:43.659Z,56.10
2019-05-11T22:56:03.712Z,56.30
2019-05-11T22:58:33.964Z,56.20
2019-05-11T23:01:04.203Z,56.40
2019-05-11T23:03:34.388Z,56.60
2019-05-11T23:06:04.612Z,56.80
2019-05-11T23:08:34.819Z,56.80
2019-05-11T23:11:05.071Z,56.90
2019-05-11T23:13:35.365Z,57.20
2019-05-11T23:16:05.550Z,57.10
2019-05-11T23:18:35.818Z,57.30
2019-05-11T23:21:08.624Z,57.60
2019-05-11T23:23:38.059Z,58.40
2019-05-11T23:26:08.640Z,57.80
2019-05-11T23:28:38.909Z,58.00
2019-05-11T23:31:09.154Z,58.10
2019-05-11T23:33:39.395Z,58.20
2019-05-11T23:39:33.398Z,58.30
2019-05-11T23:42:03.597Z,58.60
2019-05-11T23:44:33.780Z,59.00
2019-05-11T23:47:03.972Z,59.00
2019-05-11T23:49:34.219Z,59.20
2019-05-11T23:52:04.419Z,59.30
2019-05-11T23:54:34.598Z,59.20
2019-05-11T23:57:04.870Z,59.20
2019-05-11T23:59:35.044Z,59.60
